Time;durP1;ratioP1;P1;durP2;ratioP2;P2;SDS_P1;SDS_P2;PMS_P1;PMS_P2;Temp;Humidity;BMP_temperature;BMP_pressure;BME280_temperature;BME280_humidity;BME280_pressure;Samples;Min_cycle;Max_cycle;Signal;HPM_P1;HPM_P2
2021/06/19 00:02:14;;;;;;;3.15;2.08;;;21.40;92.40;;;;;;5095447;28;20086;-90
2021/06/19 00:04:40;;;;;;;4.40;2.30;;;21.40;92.40;;;;;;5096299;28;20488;-93
2021/06/19 00:07:06;;;;;;;3.80;1.90;;;21.40;92.30;;;;;;5097001;28;20031;-91
2021/06/19 00:09:33;;;;;;;3.40;2.20;;;21.40;92.20;;;;;;5095953;28;20031;-90
2021/06/19 00:12:03;;;;;;;2.58;2.33;;;21.30;92.10;;;;;;5095544;28;20110;-91
2021/06/19 00:14:29;;;;;;;2.47;2.28;;;21.30;92.10;;;;;;5094727;28;20020;-92
2021/06/19 00:16:55;;;;;;;3.15;2.22;;;21.20;92.10;;;;;;5094750;28;20039;-92
2021/06/19 00:19:21;;;;;;;3.45;2.58;;;21.20;92.20;;;;;;5095212;28;20025;-91
2021/06/19 00:21:47;;;;;;;3.78;2.80;;;21.20;92.30;;;;;;5094805;28;20028;-91
2021/06/19 00:24:23;;;;;;;2.90;2.60;;;21.10;92.40;;;;;;5094731;28;20032;-91
2021/06/19 00:26:51;;;;;;;3.60;2.45;;;21.10;92.50;;;;;;5095505;28;20027;-92
2021/06/19 00:29:18;;;;;;;6.13;2.63;;;21.00;92.70;;;;;;5094631;28;20032;-92
2021/06/19 00:31:44;;;;;;;2.47;2.28;;;20.90;92.80;;;;;;5094526;28;20035;-92
2021/06/19 00:34:11;;;;;;;4.13;2.20;;;20.90;93.00;;;;;;5094770;28;20077;-92
2021/06/19 00:36:37;;;;;;;3.67;2.40;;;20.90;93.20;;;;;;5093860;28;20036;-92
2021/06/19 00:39:04;;;;;;;2.30;2.10;;;20.80;93.40;;;;;;5094580;28;20432;-92
2021/06/19 00:41:30;;;;;;;3.83;2.35;;;20.80;93.60;;;;;;5097309;28;20020;-93
2021/06/19 00:43:56;;;;;;;2.50;2.30;;;20.70;93.90;;;;;;5095493;28;20492;-90
2021/06/19 00:46:22;;;;;;;3.95;2.30;;;20.70;94.00;;;;;;5096095;28;20091;-92
2021/06/19 00:48:47;;;;;;;7.53;2.38;;;20.70;94.20;;;;;;5097391;28;20032;-90
2021/06/19 00:51:13;;;;;;;2.40;2.20;;;20.60;94.30;;;;;;5096249;28;20035;-91
2021/06/19 00:53:39;;;;;;;3.72;2.08;;;20.60;94.50;;;;;;5094672;28;20032;-92
2021/06/19 00:56:05;;;;;;;3.20;2.10;;;20.60;94.60;;;;;;5094043;28;20154;-92
2021/06/19 00:58:33;;;;;;;2.40;2.20;;;20.50;94.70;;;;;;5094277;28;20370;-92
2021/06/19 01:00:58;;;;;;;3.85;2.42;;;20.50;94.80;;;;;;5094432;28;20047;-92
2021/06/19 01:03:24;;;;;;;3.53;2.00;;;20.50;94.90;;;;;;5095441;28;20028;-91
2021/06/19 01:05:51;;;;;;;2.95;2.35;;;20.50;95.00;;;;;;5094901;28;20073;-91
2021/06/19 01:08:17;;;;;;;3.55;2.33;;;20.50;95.10;;;;;;5094219;28;20032;-91
2021/06/19 01:10:43;;;;;;;4.05;2.45;;;20.50;95.20;;;;;;5094084;28;20069;-93
2021/06/19 01:13:08;;;;;;;2.40;2.17;;;20.50;95.30;;;;;;5093818;28;20028;-91
2021/06/19 01:15:34;;;;;;;3.80;2.45;;;20.50;95.50;;;;;;5094206;28;20043;-89
2021/06/19 01:18:00;;;;;;;2.72;2.45;;;20.50;95.40;;;;;;5094017;28;20040;-92
2021/06/19 01:20:26;;;;;;;2.53;2.30;;;20.50;95.50;;;;;;5093480;28;20017;-92
2021/06/19 01:22:54;;;;;;;4.05;2.30;;;20.50;95.50;;;;;;5093600;28;20047;-91
2021/06/19 01:25:26;;;;;;;4.65;2.10;;;20.50;95.50;;;;;;5093966;28;20053;-92
2021/06/19 01:27:54;;;;;;;2.40;2.20;;;20.40;95.50;;;;;;5093496;28;20028;-91
2021/06/19 01:30:21;;;;;;;3.25;2.40;;;20.50;95.70;;;;;;5095262;28;20028;-91
2021/06/19 01:32:48;;;;;;;2.47;2.05;;;20.40;95.90;;;;;;5093299;28;20028;-91
2021/06/19 01:35:14;;;;;;;2.67;2.20;;;20.40;95.80;;;;;;5093320;28;20020;-89
2021/06/19 01:37:58;;;;;;;2.60;2.40;;;20.40;96.00;;;;;;5093158;28;20476;-89
2021/06/19 01:40:29;;;;;;;4.23;2.40;;;20.40;95.80;;;;;;5092960;28;20026;-91
2021/06/19 01:42:56;;;;;;;4.40;2.00;;;20.40;96.00;;;;;;5092969;28;20081;-90
2021/06/19 01:45:28;;;;;;;3.15;2.30;;;20.30;96.00;;;;;;5092991;28;20028;-91
2021/06/19 01:47:54;;;;;;;3.08;2.30;;;20.40;96.10;;;;;;5093052;28;20024;-91
2021/06/19 01:50:23;;;;;;;3.08;2.10;;;20.30;96.20;;;;;;5093023;28;20028;-90
2021/06/19 01:52:50;;;;;;;3.70;2.28;;;20.30;96.30;;;;;;5095950;28;20042;-91
2021/06/19 01:55:16;;;;;;;4.00;2.20;;;20.30;96.30;;;;;;5096632;28;20091;-90
2021/06/19 01:57:42;;;;;;;2.30;2.08;;;20.30;96.30;;;;;;5094726;28;20044;-91
2021/06/19 02:00:14;;;;;;;2.15;1.95;;;20.30;96.30;;;;;;5092807;28;20028;-91
2021/06/19 02:02:40;;;;;;;1.90;1.80;;;20.30;96.30;;;;;;5094493;28;20028;-91
2021/06/19 02:05:08;;;;;;;2.20;2.00;;;20.30;96.50;;;;;;5093525;28;20016;-91
2021/06/19 02:07:43;;;;;;;3.30;1.85;;;20.30;96.60;;;;;;5092856;28;20184;-90
2021/06/19 02:10:10;;;;;;;3.85;2.20;;;20.30;96.80;;;;;;5092490;28;20028;-90
2021/06/19 02:12:36;;;;;;;3.92;1.83;;;20.20;97.00;;;;;;5092461;28;20047;-90
2021/06/19 02:15:03;;;;;;;3.63;2.40;;;20.30;97.10;;;;;;5093881;28;20481;-91
2021/06/19 02:17:29;;;;;;;1.88;1.77;;;20.20;97.20;;;;;;5092339;28;20412;-91
2021/06/19 02:19:54;;;;;;;3.65;2.03;;;20.30;97.30;;;;;;5092572;28;20030;-91
2021/06/19 02:22:20;;;;;;;2.17;2.05;;;20.30;97.30;;;;;;5092300;28;20020;-90
2021/06/19 02:24:46;;;;;;;1.98;1.77;;;20.30;97.40;;;;;;5092478;28;20024;-91
2021/06/19 02:27:13;;;;;;;1.95;1.75;;;20.30;97.40;;;;;;5092432;28;20056;-90
2021/06/19 02:29:40;;;;;;;2.30;1.92;;;20.30;97.50;;;;;;5092375;28;20484;-91
2021/06/19 02:32:08;;;;;;;4.95;2.15;;;20.30;97.50;;;;;;5092267;28;20372;-91
2021/06/19 02:34:35;;;;;;;2.10;2.00;;;20.30;97.60;;;;;;5092761;28;20073;-90
2021/06/19 02:37:01;;;;;;;4.28;2.50;;;20.30;97.60;;;;;;5092560;28;20040;-91
2021/06/19 02:39:27;;;;;;;3.38;2.80;;;20.30;97.70;;;;;;5092533;28;20033;-90
2021/06/19 02:41:53;;;;;;;4.53;2.40;;;20.30;97.90;;;;;;5092579;28;20024;-91
2021/06/19 02:44:18;;;;;;;3.58;2.53;;;20.30;98.00;;;;;;5096381;28;20028;-89
2021/06/19 02:46:44;;;;;;;2.72;2.53;;;20.30;98.30;;;;;;5101807;28;20024;-90
2021/06/19 02:49:10;;;;;;;3.85;2.75;;;20.30;98.00;;;;;;5107231;28;20461;-90
2021/06/19 02:51:35;;;;;;;3.38;2.72;;;20.30;97.90;;;;;;5093829;28;20024;-91
2021/06/19 02:54:01;;;;;;;4.05;2.60;;;20.40;97.90;;;;;;5092880;28;20036;-90
2021/06/19 02:56:27;;;;;;;5.90;2.40;;;20.40;97.90;;;;;;5092757;28;20389;-89
2021/06/19 02:58:53;;;;;;;4.32;3.03;;;20.50;97.80;;;;;;5092597;28;20028;-89
2021/06/19 03:01:19;;;;;;;3.67;2.80;;;20.50;97.80;;;;;;5092427;28;20028;-90
2021/06/19 03:03:44;;;;;;;4.70;2.80;;;20.60;97.70;;;;;;5096355;28;20375;-88
2021/06/19 03:06:10;;;;;;;5.72;2.50;;;20.60;97.40;;;;;;5100055;28;20056;-90
2021/06/19 03:08:36;;;;;;;2.95;2.70;;;20.60;97.30;;;;;;5105243;28;20065;-90
2021/06/19 03:11:02;;;;;;;2.88;2.28;;;20.60;97.10;;;;;;5099577;28;20035;-88
2021/06/19 03:13:28;;;;;;;3.05;2.80;;;20.60;97.00;;;;;;5102153;28;20047;-88
2021/06/19 03:15:53;;;;;;;5.03;2.67;;;20.60;97.00;;;;;;5101472;28;20039;-89
2021/06/19 03:18:20;;;;;;;3.63;2.60;;;20.70;97.00;;;;;;5104485;28;20090;-89
2021/06/19 03:20:45;;;;;;;3.47;2.38;;;20.70;96.90;;;;;;5107406;28;20043;-87
2021/06/19 03:23:11;;;;;;;4.20;2.22;;;20.80;96.90;;;;;;5098329;28;20028;-91
2021/06/19 03:25:41;;;;;;;3.88;2.10;;;20.80;96.70;;;;;;5098258;28;20020;-90
2021/06/19 03:28:08;;;;;;;3.95;2.45;;;20.80;96.60;;;;;;5095821;28;20039;-91
2021/06/19 03:30:36;;;;;;;3.80;2.50;;;20.90;96.60;;;;;;5097092;28;20024;-90
2021/06/19 03:33:04;;;;;;;3.22;2.70;;;21.00;96.40;;;;;;5096912;28;20062;-90
2021/06/19 03:35:30;;;;;;;3.50;2.30;;;21.00;96.20;;;;;;5096954;28;20480;-90
2021/06/19 03:37:56;;;;;;;4.75;2.65;;;21.10;96.20;;;;;;5095532;28;20477;-91
2021/06/19 03:40:24;;;;;;;2.35;2.03;;;21.20;96.00;;;;;;5095266;28;20081;-91
2021/06/19 03:42:50;;;;;;;2.88;2.58;;;21.30;96.00;;;;;;5095745;28;20525;-92
2021/06/19 03:45:17;;;;;;;2.80;2.20;;;21.40;95.80;;;;;;5095250;28;20024;-91
2021/06/19 03:47:44;;;;;;;4.25;2.40;;;21.50;95.40;;;;;;5096109;28;20344;-91
2021/06/19 03:50:12;;;;;;;5.88;2.40;;;21.60;95.20;;;;;;5095434;28;20024;-91
2021/06/19 03:52:38;;;;;;;3.70;2.40;;;21.70;95.10;;;;;;5095278;28;20104;-92
2021/06/19 03:55:06;;;;;;;2.95;2.40;;;21.90;94.60;;;;;;5095622;28;20054;-91
2021/06/19 03:57:32;;;;;;;3.92;2.42;;;22.00;93.80;;;;;;5095310;28;20377;-89
2021/06/19 03:59:59;;;;;;;5.05;2.35;;;22.10;93.50;;;;;;5097093;28;20062;-90
2021/06/19 04:02:26;;;;;;;6.18;2.60;;;22.10;93.30;;;;;;5095106;28;20020;-90
2021/06/19 04:04:52;;;;;;;2.83;2.40;;;22.20;93.00;;;;;;5097731;28;20486;-91
2021/06/19 04:07:21;;;;;;;5.68;2.60;;;22.30;92.70;;;;;;5095462;28;20039;-92
2021/06/19 04:09:48;;;;;;;4.47;2.40;;;22.40;92.60;;;;;;5096365;28;20027;-91
2021/06/19 04:12:15;;;;;;;3.40;2.28;;;22.50;91.90;;;;;;5094826;28;20469;-91
2021/06/19 04:14:41;;;;;;;5.70;2.33;;;22.60;91.90;;;;;;5094896;28;20020;-91
2021/06/19 04:17:08;;;;;;;3.22;2.53;;;22.70;91.30;;;;;;5095894;28;20032;-90
2021/06/19 04:19:38;;;;;;;5.97;2.40;;;22.80;91.00;;;;;;5094983;28;20060;-90
2021/06/19 04:22:05;;;;;;;5.22;2.95;;;22.90;90.40;;;;;;5095781;28;20016;-90
2021/06/19 04:24:30;;;;;;;3.63;2.58;;;22.90;89.50;;;;;;5094681;28;20032;-91
2021/06/19 04:26:56;;;;;;;6.20;2.83;;;23.00;89.40;;;;;;5096212;28;20024;-90
2021/06/19 04:29:22;;;;;;;4.25;2.60;;;23.10;88.70;;;;;;5096616;28;20024;-89
2021/06/19 04:31:48;;;;;;;2.92;2.60;;;23.20;87.10;;;;;;5095479;28;20020;-91
2021/06/19 04:34:14;;;;;;;2.85;2.50;;;23.20;87.50;;;;;;5094934;28;20024;-89
2021/06/19 04:36:40;;;;;;;3.03;2.30;;;23.30;87.30;;;;;;5094219;28;20500;-91
2021/06/19 04:39:06;;;;;;;3.85;2.60;;;23.40;86.70;;;;;;5094294;28;20032;-91
2021/06/19 04:41:47;;;;;;;3.42;2.55;;;23.40;86.60;;;;;;5093992;28;20027;-90
2021/06/19 04:46:53;;;;;;;4.22;2.83;;;23.50;85.60;;;;;;5095767;28;20020;-90
2021/06/19 04:49:19;;;;;;;3.08;2.60;;;23.40;85.60;;;;;;5094557;28;20129;-92
2021/06/19 04:51:46;;;;;;;2.97;2.47;;;23.40;84.60;;;;;;5094186;28;20484;-91
2021/06/19 04:54:13;;;;;;;3.85;3.10;;;23.30;85.00;;;;;;5096853;28;20485;-91
2021/06/19 04:56:40;;;;;;;3.97;3.08;;;23.30;85.10;;;;;;5093850;28;20032;-91
2021/06/19 04:59:05;;;;;;;3.25;2.95;;;23.30;85.40;;;;;;5094042;28;20038;-92
2021/06/19 05:01:31;;;;;;;6.10;3.20;;;23.30;85.50;;;;;;5094401;28;20106;-90
2021/06/19 05:03:57;;;;;;;3.40;2.70;;;23.30;85.60;;;;;;5098802;28;20127;-89
2021/06/19 05:06:23;;;;;;;3.13;2.63;;;23.30;85.60;;;;;;5102859;28;20024;-91
2021/06/19 05:08:48;;;;;;;4.20;2.60;;;23.30;85.30;;;;;;5112685;28;20024;-89
2021/06/19 05:11:14;;;;;;;3.55;2.83;;;23.40;85.60;;;;;;5107191;28;20036;-91
2021/06/19 05:13:40;;;;;;;3.80;3.15;;;23.60;85.00;;;;;;5100903;28;20059;-90
2021/06/19 05:16:06;;;;;;;3.08;2.78;;;23.70;85.20;;;;;;5095569;28;20087;-91
2021/06/19 05:18:31;;;;;;;3.78;2.97;;;23.90;85.70;;;;;;5095011;28;20031;-91
2021/06/19 05:20:57;;;;;;;3.22;2.92;;;24.10;86.00;;;;;;5093462;28;20028;-89
2021/06/19 05:23:23;;;;;;;4.60;3.10;;;24.50;86.00;;;;;;5093775;28;20039;-90
2021/06/19 05:25:48;;;;;;;5.75;3.00;;;24.80;84.40;;;;;;5093827;28;20058;-92
2021/06/19 05:28:14;;;;;;;5.28;3.10;;;25.00;82.80;;;;;;5093633;28;20388;-92
2021/06/19 05:30:40;;;;;;;3.42;3.13;;;25.30;82.80;;;;;;5093190;28;20055;-90
2021/06/19 05:33:06;;;;;;;3.55;3.13;;;25.70;80.70;;;;;;5093414;28;20043;-91
2021/06/19 05:35:33;;;;;;;5.53;3.35;;;25.90;79.70;;;;;;5093354;28;20028;-91
2021/06/19 05:37:58;;;;;;;3.88;3.28;;;26.10;79.20;;;;;;5093221;28;20047;-89
2021/06/19 05:40:24;;;;;;;3.00;2.70;;;26.40;78.10;;;;;;5105082;28;20092;-90
2021/06/19 05:42:53;;;;;;;5.18;3.53;;;26.60;77.70;;;;;;5115859;28;20084;-91
2021/06/19 05:45:19;;;;;;;6.53;2.95;;;26.90;75.90;;;;;;5093514;28;20034;-89
2021/06/19 05:47:45;;;;;;;5.15;3.10;;;27.20;74.20;;;;;;5093315;28;20448;-92
2021/06/19 05:50:11;;;;;;;2.97;2.78;;;27.40;72.40;;;;;;5093263;28;20119;-89
2021/06/19 05:52:37;;;;;;;5.22;3.05;;;27.60;72.00;;;;;;5093106;28;20040;-90
2021/06/19 05:55:05;;;;;;;5.82;2.60;;;27.90;71.10;;;;;;5092577;28;20025;-93
2021/06/19 05:57:31;;;;;;;3.03;2.72;;;28.00;70.20;;;;;;5094538;28;20036;-91
2021/06/19 05:59:57;;;;;;;3.28;2.70;;;28.20;70.00;;;;;;5103016;28;20036;-89
2021/06/19 06:02:22;;;;;;;4.88;2.70;;;28.40;69.60;;;;;;5101883;28;20073;-89
2021/06/19 06:04:48;;;;;;;3.35;2.50;;;28.70;68.70;;;;;;5097154;28;20074;-92
2021/06/19 06:07:14;;;;;;;6.32;2.47;;;29.00;68.40;;;;;;5093598;28;20024;-89
2021/06/19 06:09:39;;;;;;;6.00;2.40;;;29.10;67.70;;;;;;5093283;28;20024;-91
2021/06/19 06:12:07;;;;;;;4.85;2.40;;;29.30;66.70;;;;;;5093400;28;20380;-90
2021/06/19 06:14:33;;;;;;;3.75;2.30;;;29.50;66.30;;;;;;5104365;28;20473;-90
2021/06/19 06:16:59;;;;;;;4.13;2.42;;;29.80;65.70;;;;;;5098601;28;20048;-92
2021/06/19 06:19:24;;;;;;;3.15;2.58;;;30.00;64.60;;;;;;5093964;28;20381;-89
2021/06/19 06:21:50;;;;;;;3.03;2.30;;;30.10;64.70;;;;;;5092945;28;20106;-92
2021/06/19 06:24:17;;;;;;;3.72;2.40;;;30.30;64.60;;;;;;5093108;28;20069;-92
2021/06/19 06:26:43;;;;;;;4.75;2.53;;;30.50;64.50;;;;;;5093418;28;20028;-91
2021/06/19 06:29:09;;;;;;;4.40;2.50;;;30.70;63.40;;;;;;5093020;28;20034;-92
2021/06/19 06:31:35;;;;;;;5.22;2.40;;;30.80;63.20;;;;;;5092934;28;20032;-91
2021/06/19 06:34:02;;;;;;;5.03;2.30;;;30.90;62.60;;;;;;5092866;28;20028;-93
2021/06/19 06:36:28;;;;;;;2.45;2.25;;;31.10;62.00;;;;;;5098839;28;20499;-91
2021/06/19 06:38:53;;;;;;;5.57;2.35;;;31.20;61.30;;;;;;5102416;28;20035;-91
2021/06/19 06:41:19;;;;;;;3.03;2.10;;;31.30;61.00;;;;;;5103965;28;20043;-92
2021/06/19 06:43:45;;;;;;;4.78;2.00;;;31.60;61.00;;;;;;5096069;28;20051;-91
2021/06/19 06:46:11;;;;;;;6.93;2.17;;;31.90;60.90;;;;;;5092522;28;20020;-93
2021/06/19 06:48:37;;;;;;;4.88;2.60;;;32.10;59.60;;;;;;5092970;28;20028;-91
2021/06/19 06:51:03;;;;;;;2.58;2.13;;;32.20;59.40;;;;;;5093385;28;20111;-92
2021/06/19 06:53:29;;;;;;;2.78;1.90;;;32.40;59.60;;;;;;5096738;28;20063;-93
2021/06/19 06:55:54;;;;;;;4.03;1.90;;;32.80;59.20;;;;;;5097928;28;20024;-93
2021/06/19 06:58:20;;;;;;;2.20;1.98;;;33.30;59.00;;;;;;5101212;28;20520;-93
2021/06/19 07:00:46;;;;;;;3.13;1.75;;;33.70;57.70;;;;;;5098608;28;20028;-90
2021/06/19 07:03:12;;;;;;;2.72;2.05;;;34.10;57.70;;;;;;5097550;28;20495;-88
2021/06/19 07:05:37;;;;;;;3.72;2.13;;;34.30;55.30;;;;;;5098155;28;20024;-90
2021/06/19 07:08:03;;;;;;;4.07;1.88;;;34.00;54.50;;;;;;5099721;28;20495;-93
2021/06/19 07:10:29;;;;;;;8.98;2.00;;;34.00;55.20;;;;;;5098042;28;20111;-93
2021/06/19 07:12:55;;;;;;;2.33;2.13;;;34.20;55.30;;;;;;5099400;28;20067;-92
2021/06/19 07:15:21;;;;;;;3.55;2.20;;;34.60;55.40;;;;;;5118454;28;20012;-92
2021/06/19 07:17:48;;;;;;;2.10;1.90;;;34.70;54.60;;;;;;5106000;28;20134;-91
2021/06/19 07:20:14;;;;;;;3.88;2.10;;;34.80;54.10;;;;;;5100619;28;20020;-92
2021/06/19 07:22:40;;;;;;;2.67;1.88;;;34.80;55.40;;;;;;5096137;28;20059;-93
2021/06/19 07:25:08;;;;;;;2.00;1.70;;;34.90;54.20;;;;;;5095774;28;20028;-91
2021/06/19 07:27:35;;;;;;;3.20;2.15;;;34.80;53.50;;;;;;5096608;28;20039;-92
2021/06/19 07:30:00;;;;;;;2.78;2.13;;;34.40;53.10;;;;;;5096664;28;20500;-91
2021/06/19 07:32:26;;;;;;;6.47;2.25;;;33.80;53.00;;;;;;5095805;28;20024;-91
2021/06/19 07:34:52;;;;;;;4.22;1.90;;;33.10;53.30;;;;;;5095771;28;20061;-92
2021/06/19 07:37:18;;;;;;;2.17;1.98;;;33.00;55.10;;;;;;5095647;28;20466;-91
2021/06/19 07:39:44;;;;;;;5.18;2.10;;;33.20;54.70;;;;;;5096026;28;20431;-90
2021/06/19 07:42:10;;;;;;;5.32;2.10;;;33.30;55.10;;;;;;5096245;28;20024;-90
2021/06/19 07:44:35;;;;;;;2.42;2.20;;;33.40;54.50;;;;;;5097344;28;20085;-90
2021/06/19 07:47:02;;;;;;;4.50;2.45;;;33.70;53.60;;;;;;5095546;28;20035;-92
2021/06/19 07:49:28;;;;;;;4.18;2.08;;;33.70;54.00;;;;;;5095599;28;20039;-89
2021/06/19 07:51:54;;;;;;;4.57;2.35;;;33.70;53.80;;;;;;5095062;28;20035;-89
2021/06/19 07:54:20;;;;;;;3.28;2.78;;;33.40;53.30;;;;;;5095769;28;20035;-91
2021/06/19 07:56:49;;;;;;;4.80;2.47;;;32.90;53.70;;;;;;5095480;28;20024;-91
2021/06/19 07:59:15;;;;;;;4.78;2.20;;;33.00;55.40;;;;;;5105181;28;20077;-91
2021/06/19 08:01:41;;;;;;;3.38;2.42;;;33.50;54.70;;;;;;5095064;28;20028;-93
2021/06/19 08:04:07;;;;;;;4.15;2.53;;;34.20;54.30;;;;;;5105423;22;20081;-90
2021/06/19 08:06:32;;;;;;;4.32;2.30;;;34.70;53.60;;;;;;5047018;28;20128;-89
2021/06/19 08:08:58;;;;;;;5.03;2.85;;;35.30;52.90;;;;;;5043703;28;20049;-91
2021/06/19 08:11:26;;;;;;;2.72;2.40;;;35.60;51.30;;;;;;5044333;28;20026;-89
2021/06/19 08:13:53;;;;;;;3.42;2.45;;;35.50;51.30;;;;;;5043490;28;20033;-90
2021/06/19 08:16:20;;;;;;;2.97;2.70;;;35.50;51.30;;;;;;5051351;28;20030;-90
2021/06/19 08:18:46;;;;;;;6.22;2.55;;;35.40;51.30;;;;;;5051463;28;20052;-90
2021/06/19 08:21:20;;;;;;;4.88;2.58;;;35.40;51.80;;;;;;5043711;28;20120;-89
2021/06/19 08:23:45;;;;;;;7.25;2.35;;;35.70;51.80;;;;;;5037461;28;20033;-91
2021/06/19 08:26:11;;;;;;;3.35;2.45;;;36.10;51.30;;;;;;5036317;28;20394;-90
2021/06/19 08:28:37;;;;;;;4.70;2.75;;;36.30;50.40;;;;;;5037743;28;20037;-90
2021/06/19 08:31:03;;;;;;;3.42;3.13;;;36.30;49.90;;;;;;5036414;28;20025;-89
2021/06/19 08:33:31;;;;;;;9.50;3.47;;;36.00;49.50;;;;;;5036369;28;20490;-88
2021/06/19 08:35:57;;;;;;;3.25;2.80;;;35.50;49.50;;;;;;5036848;28;20094;-90
2021/06/19 08:38:23;;;;;;;3.67;2.65;;;35.10;50.40;;;;;;5035985;28;20125;-91
2021/06/19 08:40:50;;;;;;;3.15;2.70;;;35.00;50.40;;;;;;5036120;28;20032;-89
2021/06/19 08:43:17;;;;;;;2.78;2.30;;;34.60;50.70;;;;;;5036158;28;20034;-90
2021/06/19 08:45:43;;;;;;;4.80;2.47;;;34.50;52.00;;;;;;5038878;28;20076;-89
2021/06/19 08:48:22;;;;;;;6.53;2.60;;;35.00;52.20;;;;;;5039124;28;20033;-90
2021/06/19 08:50:51;;;;;;;3.03;2.10;;;35.60;51.50;;;;;;5045293;28;20068;-90
2021/06/19 08:53:19;;;;;;;7.35;3.03;;;36.00;51.40;;;;;;5056619;28;20017;-90
2021/06/19 08:55:46;;;;;;;2.55;2.35;;;36.70;49.90;;;;;;5059868;28;20013;-90
2021/06/19 08:58:11;;;;;;;3.20;2.90;;;36.90;49.80;;;;;;5054555;28;20041;-89
2021/06/19 09:00:37;;;;;;;5.10;3.72;;;37.00;49.30;;;;;;5039211;28;20094;-91
2021/06/19 09:03:22;;;;;;;7.45;3.30;;;36.80;48.30;;;;;;5038232;28;20033;-90
2021/06/19 09:05:48;;;;;;;4.38;2.53;;;36.10;48.00;;;;;;5046901;28;20048;-89
2021/06/19 09:08:15;;;;;;;3.22;2.70;;;35.70;49.50;;;;;;5053221;28;20006;-89
2021/06/19 09:10:47;;;;;;;2.65;2.45;;;36.00;49.80;;;;;;5056858;28;20025;-89
2021/06/19 09:13:15;;;;;;;3.27;2.57;;;36.20;49.80;;;;;;5056606;28;20044;-89
2021/06/19 09:15:49;;;;;;;2.97;2.40;;;36.50;49.80;;;;;;5056643;28;20029;-89
2021/06/19 09:18:24;;;;;;;3.47;2.70;;;36.90;49.60;;;;;;5041705;28;20037;-90
2021/06/19 09:20:54;;;;;;;3.30;2.72;;;37.10;49.10;;;;;;5033679;28;20466;-90
2021/06/19 09:23:28;;;;;;;2.95;2.70;;;37.00;48.40;;;;;;5033739;28;20014;-90
2021/06/19 09:26:22;;;;;;;5.10;2.78;;;36.80;48.60;;;;;;5034734;28;20060;-90
2021/06/19 09:29:02;;;;;;;3.40;2.55;;;36.70;49.50;;;;;;5033365;28;20382;-89
2021/06/19 09:31:35;;;;;;;4.20;2.40;;;37.00;49.40;;;;;;5034258;28;20037;-91
2021/06/19 09:34:13;;;;;;;4.25;2.85;;;37.30;49.40;;;;;;5034956;28;20482;-91
2021/06/19 09:37:08;;;;;;;3.20;2.90;;;37.40;48.20;;;;;;5037376;28;20033;-88
2021/06/19 09:39:35;;;;;;;4.80;2.55;;;37.50;48.40;;;;;;5040959;28;20041;-89
2021/06/19 09:42:03;;;;;;;2.78;2.58;;;37.70;48.50;;;;;;5035870;28;20030;-90
2021/06/19 09:44:42;;;;;;;7.32;2.60;;;38.20;47.60;;;;;;5035731;28;20056;-89
2021/06/19 09:47:09;;;;;;;6.03;2.40;;;38.20;47.20;;;;;;5036138;28;20040;-89
2021/06/19 09:49:43;;;;;;;4.70;2.10;;;38.30;47.70;;;;;;5036008;28;20026;-90
2021/06/19 09:52:10;;;;;;;6.90;2.20;;;38.60;47.70;;;;;;5035644;28;20026;-89
2021/06/19 09:54:40;;;;;;;5.57;2.42;;;38.30;47.10;;;;;;5037405;28;20211;-90
2021/06/19 09:57:12;;;;;;;5.13;2.20;;;38.00;47.00;;;;;;5036574;28;20135;-90
2021/06/19 09:59:38;;;;;;;2.95;1.95;;;37.50;47.40;;;;;;5037289;28;20032;-89
2021/06/19 10:02:24;;;;;;;4.63;1.90;;;36.90;47.60;;;;;;5037073;28;20078;-87
2021/06/19 10:04:51;;;;;;;3.50;2.42;;;36.00;48.50;;;;;;5036449;28;20390;-88
2021/06/19 10:07:25;;;;;;;3.45;2.00;;;34.70;49.60;;;;;;5035450;28;20037;-88
2021/06/19 10:09:52;;;;;;;6.25;2.47;;;33.60;50.70;;;;;;5035421;28;20021;-88
2021/06/19 10:12:26;;;;;;;4.70;2.05;;;32.60;51.80;;;;;;5035879;28;20075;-88
2021/06/19 10:15:10;;;;;;;5.78;2.28;;;31.80;52.80;;;;;;5034720;28;20033;-87
2021/06/19 10:17:40;;;;;;;4.25;2.10;;;31.10;53.80;;;;;;5034052;28;20080;-87
2021/06/19 10:20:09;;;;;;;2.35;2.15;;;30.80;54.70;;;;;;5035765;28;20158;-88
2021/06/19 10:22:36;;;;;;;3.45;2.03;;;31.10;55.40;;;;;;5034780;28;20029;-89
2021/06/19 10:25:07;;;;;;;4.82;2.10;;;31.70;54.70;;;;;;5035557;28;20033;-89
2021/06/19 10:27:36;;;;;;;3.20;1.90;;;32.00;53.60;;;;;;5037724;28;20070;-90
2021/06/19 10:30:05;;;;;;;2.42;1.70;;;32.00;53.10;;;;;;5040065;28;20386;-89
2021/06/19 10:32:37;;;;;;;2.20;2.00;;;31.90;52.80;;;;;;5041598;28;20026;-90
2021/06/19 10:35:03;;;;;;;4.68;2.03;;;31.70;53.00;;;;;;5040099;28;20026;-89
2021/06/19 10:37:30;;;;;;;4.30;2.05;;;31.40;53.20;;;;;;5042206;28;20046;-88
2021/06/19 10:39:57;;;;;;;6.53;2.00;;;31.20;53.40;;;;;;5041918;28;20093;-88
2021/06/19 10:42:32;;;;;;;3.80;1.73;;;31.00;53.70;;;;;;5049042;28;20024;-89
2021/06/19 10:45:07;;;;;;;6.63;2.10;;;30.90;54.10;;;;;;5052569;28;20034;-88
2021/06/19 10:47:53;;;;;;;2.03;1.75;;;30.70;54.30;;;;;;5058434;28;20089;-86
2021/06/19 10:50:23;;;;;;;3.78;1.50;;;30.70;54.60;;;;;;5048461;28;20113;-88
2021/06/19 10:53:09;;;;;;;5.60;1.70;;;30.70;54.60;;;;;;5040067;28;20017;-85
2021/06/19 10:55:55;;;;;;;1.88;1.50;;;30.70;54.60;;;;;;5038183;28;20060;-88
2021/06/19 10:58:33;;;;;;;9.48;1.80;;;30.70;54.80;;;;;;5038152;28;20037;-88
2021/06/19 11:01:03;;;;;;;2.22;1.20;;;31.20;55.20;;;;;;5039001;28;20430;-87
2021/06/19 11:03:45;;;;;;;1.98;1.42;;;31.80;54.30;;;;;;5039935;28;20108;-87
2021/06/19 11:06:30;;;;;;;4.15;1.83;;;32.60;54.30;;;;;;5039545;28;20120;-91
2021/06/19 11:09:10;;;;;;;6.50;2.03;;;33.80;52.10;;;;;;5038918;28;20046;-89
2021/06/19 11:11:56;;;;;;;2.80;1.50;;;34.30;50.60;;;;;;5038219;28;20034;-89
2021/06/19 11:15:02;;;;;;;2.85;1.42;;;34.40;50.00;;;;;;5039901;28;20105;-88
2021/06/19 11:17:34;;;;;;;4.43;1.70;;;34.70;50.40;;;;;;5037628;28;20060;-89
2021/06/19 11:20:05;;;;;;;5.85;1.55;;;35.60;50.10;;;;;;5037793;28;20040;-91
2021/06/19 11:22:55;;;;;;;3.28;1.30;;;36.20;48.50;;;;;;5039924;28;20030;-89
2021/06/19 11:25:26;;;;;;;3.63;1.35;;;36.30;48.40;;;;;;5038342;28;20443;-90
2021/06/19 11:28:06;;;;;;;3.20;1.40;;;36.50;48.40;;;;;;5039823;28;20089;-87
2021/06/19 11:30:38;;;;;;;4.55;1.40;;;36.60;47.80;;;;;;5041222;28;20021;-89
2021/06/19 11:33:16;;;;;;;5.28;1.55;;;36.90;47.90;;;;;;5041011;28;20033;-90
2021/06/19 11:35:43;;;;;;;1.85;1.55;;;37.60;47.40;;;;;;5039171;28;20033;-89
2021/06/19 11:38:10;;;;;;;3.25;1.30;;;38.50;47.40;;;;;;5035671;28;20216;-89
2021/06/19 11:40:37;;;;;;;6.28;1.80;;;39.10;45.60;;;;;;5037008;28;20029;-91
2021/06/19 11:43:05;;;;;;;2.75;1.25;;;38.80;44.40;;;;;;5040618;28;20032;-87
2021/06/19 11:45:34;;;;;;;5.82;1.63;;;38.40;44.90;;;;;;5040863;28;20025;-89
2021/06/19 11:48:08;;;;;;;4.68;1.52;;;38.20;45.10;;;;;;5040576;28;20022;-90
2021/06/19 11:50:45;;;;;;;2.50;1.20;;;37.90;44.50;;;;;;5047623;28;20064;-90
2021/06/19 11:53:24;;;;;;;9.38;1.48;;;37.30;45.30;;;;;;5058363;28;20036;-88
2021/06/19 11:55:52;;;;;;;4.45;1.70;;;37.00;45.50;;;;;;5054093;28;20060;-90
2021/06/19 11:58:18;;;;;;;5.70;1.45;;;37.00;46.20;;;;;;5058590;28;20049;-90
2021/06/19 12:00:54;;;;;;;2.75;1.55;;;37.40;46.00;;;;;;5047101;28;20033;-90
2021/06/19 12:03:24;;;;;;;4.15;1.33;;;37.80;45.60;;;;;;5037410;28;20029;-88
2021/06/19 12:05:50;;;;;;;5.18;1.20;;;37.90;45.20;;;;;;5036596;28;20053;-90
2021/06/19 12:08:26;;;;;;;2.45;1.50;;;37.40;44.50;;;;;;5036132;28;20029;-89
2021/06/19 12:10:52;;;;;;;4.72;1.63;;;36.30;45.00;;;;;;5035978;28;20420;-89
2021/06/19 12:13:32;;;;;;;2.47;1.23;;;35.30;46.00;;;;;;5035342;28;20059;-90
2021/06/19 12:15:59;;;;;;;1.40;1.30;;;34.10;47.50;;;;;;5036041;28;20040;-88
2021/06/19 12:18:25;;;;;;;5.00;1.50;;;33.30;48.90;;;;;;5036418;28;20040;-88
2021/06/19 12:21:02;;;;;;;5.50;1.70;;;32.60;50.40;;;;;;5037710;28;20030;-89
2021/06/19 12:23:48;;;;;;;11.32;2.38;;;31.80;54.10;;;;;;5037723;28;20104;-89
2021/06/19 12:26:16;;;;;;;6.50;2.13;;;30.10;71.50;;;;;;5053829;28;20041;-86
2021/06/19 12:28:48;;;;;;;7.25;2.22;;;28.70;74.80;;;;;;5037229;28;20489;-87
2021/06/19 12:31:15;;;;;;;8.05;2.13;;;27.40;79.70;;;;;;5039359;28;20026;-88
2021/06/19 12:33:41;;;;;;;3.78;2.03;;;26.80;86.00;;;;;;5038131;28;20026;-88
2021/06/19 12:36:13;;;;;;;3.55;2.00;;;26.50;87.60;;;;;;5039204;28;20128;-87
2021/06/19 12:38:45;;;;;;;2.03;1.80;;;26.40;89.40;;;;;;5037509;28;20068;-87
2021/06/19 12:41:11;;;;;;;6.15;1.88;;;26.40;90.70;;;;;;5038127;28;20026;-88
2021/06/19 12:43:54;;;;;;;4.47;2.20;;;26.50;91.80;;;;;;5037742;28;20030;-87
2021/06/19 12:46:24;;;;;;;2.75;1.85;;;26.80;91.40;;;;;;5037201;28;20060;-87
2021/06/19 12:49:02;;;;;;;1.75;1.50;;;27.10;90.40;;;;;;5037629;28;20481;-87
2021/06/19 12:51:36;;;;;;;2.00;1.60;;;27.40;91.20;;;;;;5038462;28;20033;-88
2021/06/19 12:54:27;;;;;;;2.33;1.58;;;27.60;86.90;;;;;;5040531;28;20041;-87
2021/06/19 12:56:56;;;;;;;5.45;1.80;;;27.60;80.10;;;;;;5044347;28;20049;-87
2021/06/19 12:59:22;;;;;;;1.70;1.58;;;27.70;84.80;;;;;;5045070;28;20021;-88